Time;durP1;ratioP1;P1;durP2;ratioP2;P2;SDS_P1;SDS_P2;PMS_P1;PMS_P2;Temp;Humidity;BMP_temperature;BMP_pressure;BME280_temperature;BME280_humidity;BME280_pressure;Samples;Min_cycle;Max_cycle;Signal;HPM_P1;HPM_P2
2021/12/08 00:01:58;;;;;;;3.57;1.53;;;5.30;99.90;;;;;;5055372;28;20126;-67
2021/12/08 00:04:24;;;;;;;3.38;1.02;;;5.40;99.90;;;;;;5056293;28;20025;-67
2021/12/08 00:06:49;;;;;;;3.83;1.30;;;5.40;99.90;;;;;;5056424;28;20478;-67
2021/12/08 00:09:27;;;;;;;3.73;1.13;;;5.50;99.90;;;;;;5056099;28;20092;-66
2021/12/08 00:14:38;;;;;;;2.90;1.08;;;5.60;99.90;;;;;;5057471;28;20167;-67
2021/12/08 00:17:04;;;;;;;4.17;1.30;;;5.60;99.90;;;;;;5055874;28;20055;-67
2021/12/08 00:19:30;;;;;;;3.78;1.10;;;5.50;99.90;;;;;;5055707;28;20053;-66
2021/12/08 00:21:56;;;;;;;;;;;5.50;99.90;;;;;;5056294;28;20111;-66
2021/12/08 00:24:22;;;;;;;3.85;1.20;;;5.50;99.90;;;;;;5056044;28;19952;-66
2021/12/08 00:26:48;;;;;;;3.90;1.30;;;5.50;99.90;;;;;;5055867;28;20033;-66
2021/12/08 00:29:13;;;;;;;2.95;1.38;;;5.50;99.90;;;;;;5055592;28;20040;-66
2021/12/08 00:31:40;;;;;;;2.83;1.20;;;5.50;99.90;;;;;;5055676;28;20044;-69
2021/12/08 00:34:06;;;;;;;3.30;0.98;;;5.60;99.90;;;;;;5037551;28;20025;-66
2021/12/08 00:36:41;;;;;;;2.90;1.33;;;5.60;99.90;;;;;;5055416;28;20025;-66
2021/12/08 00:39:07;;;;;;;3.15;1.42;;;5.60;99.90;;;;;;5055534;28;20017;-66
2021/12/08 00:41:33;;;;;;;3.20;1.65;;;5.50;99.90;;;;;;5055494;28;20382;-66
2021/12/08 00:43:58;;;;;;;4.07;1.43;;;5.50;99.90;;;;;;5055697;28;20032;-67
2021/12/08 00:46:24;;;;;;;3.07;1.57;;;5.40;99.90;;;;;;5055236;28;20086;-66
2021/12/08 00:48:51;;;;;;;3.53;1.53;;;5.40;99.90;;;;;;5055307;28;20051;-66
2021/12/08 00:51:17;;;;;;;;;;;5.40;99.90;;;;;;5055415;28;20025;-67
2021/12/08 00:53:43;;;;;;;2.53;1.20;;;5.30;99.90;;;;;;5055029;28;19904;-66
2021/12/08 00:56:09;;;;;;;4.45;1.40;;;5.20;99.90;;;;;;5055924;28;20025;-68
2021/12/08 00:58:35;;;;;;;4.75;1.55;;;5.20;99.90;;;;;;5037577;28;20025;-67
2021/12/08 01:01:00;;;;;;;2.77;1.47;;;5.20;99.90;;;;;;5054791;28;20083;-67
2021/12/08 01:03:26;;;;;;;3.70;1.87;;;5.10;99.90;;;;;;5054906;28;20021;-67
2021/12/08 01:05:55;;;;;;;4.90;1.70;;;5.00;99.90;;;;;;5055141;28;20025;-67
2021/12/08 01:08:25;;;;;;;3.33;1.60;;;4.90;99.90;;;;;;5055257;28;20416;-67
2021/12/08 01:10:56;;;;;;;5.07;1.60;;;4.90;99.90;;;;;;5054987;28;20024;-67
2021/12/08 01:13:24;;;;;;;6.45;1.98;;;4.80;99.90;;;;;;5054996;28;20058;-67
2021/12/08 01:15:52;;;;;;;6.68;2.55;;;4.80;99.90;;;;;;5036854;28;20025;-67
2021/12/08 01:18:19;;;;;;;4.45;1.77;;;4.80;99.90;;;;;;5054803;28;20021;-67
2021/12/08 01:20:46;;;;;;;4.25;2.13;;;4.80;99.90;;;;;;5036694;28;20497;-67
2021/12/08 01:23:12;;;;;;;4.00;1.75;;;4.80;99.90;;;;;;5054528;28;20025;-66
2021/12/08 01:25:38;;;;;;;4.32;2.15;;;4.80;99.90;;;;;;5055214;28;20134;-67
2021/12/08 01:28:04;;;;;;;4.93;2.47;;;4.80;99.90;;;;;;5055504;28;20033;-66
2021/12/08 01:30:29;;;;;;;7.53;2.60;;;4.70;99.90;;;;;;5054861;28;20367;-68
2021/12/08 01:32:56;;;;;;;6.73;2.47;;;4.70;99.90;;;;;;5054887;28;20362;-66
2021/12/08 01:35:22;;;;;;;;;;;4.60;99.90;;;;;;5055300;28;20021;-66
2021/12/08 01:37:48;;;;;;;5.47;2.40;;;4.60;99.90;;;;;;5054506;28;20008;-66
2021/12/08 01:40:15;;;;;;;4.78;2.60;;;4.70;99.90;;;;;;5055108;28;20048;-66
2021/12/08 01:42:47;;;;;;;5.90;2.47;;;4.90;99.90;;;;;;5054395;28;20108;-67
2021/12/08 01:48:06;;;;;;;5.20;2.80;;;4.70;99.90;;;;;;5054872;28;20031;-66
2021/12/08 01:50:33;;;;;;;5.10;2.60;;;4.60;99.90;;;;;;5054227;28;20033;-66
2021/12/08 01:52:58;;;;;;;;;;;4.50;99.90;;;;;;5036748;28;20033;-66
2021/12/08 01:55:24;;;;;;;6.22;2.72;;;4.60;99.90;;;;;;5036101;28;19962;-67
2021/12/08 01:57:50;;;;;;;4.33;2.63;;;4.40;99.90;;;;;;5036421;28;20401;-66
2021/12/08 02:00:29;;;;;;;6.05;2.42;;;4.40;99.90;;;;;;5036099;28;20024;-67
2021/12/08 02:02:55;;;;;;;4.72;2.53;;;4.30;99.90;;;;;;5053888;28;20021;-66
2021/12/08 02:05:21;;;;;;;5.85;2.78;;;4.30;99.90;;;;;;5036488;28;20382;-67
2021/12/08 02:07:47;;;;;;;5.30;2.47;;;4.20;99.90;;;;;;5054063;28;20021;-67
2021/12/08 02:10:13;;;;;;;7.55;3.00;;;4.30;99.90;;;;;;5035810;28;20264;-67
2021/12/08 02:12:41;;;;;;;7.53;2.88;;;4.20;99.90;;;;;;5053724;28;20044;-66
2021/12/08 02:15:10;;;;;;;6.20;3.00;;;4.20;99.90;;;;;;5053645;28;20021;-66
2021/12/08 02:17:36;;;;;;;6.60;3.42;;;4.20;99.90;;;;;;5053553;28;20082;-66
2021/12/08 02:20:06;;;;;;;4.68;2.28;;;4.30;99.90;;;;;;5035487;28;20387;-66
2021/12/08 02:22:32;;;;;;;8.48;3.03;;;4.30;99.90;;;;;;5035633;28;20064;-66
2021/12/08 02:24:58;;;;;;;5.28;3.20;;;4.30;99.90;;;;;;5053001;28;20060;-66
2021/12/08 02:27:24;;;;;;;6.40;3.10;;;4.20;99.90;;;;;;5035690;28;20040;-66
2021/12/08 02:29:59;;;;;;;15.32;7.15;;;4.40;99.90;;;;;;5054536;28;20298;-66
2021/12/08 02:46:36;;;;;;;14.27;6.65;;;4.30;99.90;;;;;;5053885;28;20036;-66
2021/12/08 02:48:52;;;;;;;6.18;2.92;;;4.30;99.90;;;;;;5053036;28;20039;-67
2021/12/08 02:51:20;;;;;;;8.05;3.25;;;4.30;99.90;;;;;;5052758;28;20025;-67
2021/12/08 02:53:47;;;;;;;8.23;3.05;;;4.30;99.90;;;;;;5053076;28;20017;-67
2021/12/08 02:56:13;;;;;;;4.88;2.72;;;4.30;99.90;;;;;;5034928;28;20108;-67
2021/12/08 02:58:39;;;;;;;7.38;3.03;;;4.30;99.90;;;;;;5034930;28;20059;-67
2021/12/08 03:01:07;;;;;;;6.73;3.53;;;4.40;99.90;;;;;;5052772;28;20029;-67
2021/12/08 03:03:34;;;;;;;5.55;3.17;;;4.40;99.90;;;;;;5034913;28;20052;-67
2021/12/08 03:05:59;;;;;;;7.20;3.50;;;4.40;99.90;;;;;;5034866;28;20032;-67
2021/12/08 03:08:25;;;;;;;4.45;2.60;;;4.50;99.90;;;;;;5034830;28;20037;-67
2021/12/08 03:10:52;;;;;;;3.80;2.67;;;4.50;99.90;;;;;;5053472;28;20017;-67
2021/12/08 03:13:19;;;;;;;6.00;2.50;;;4.50;99.90;;;;;;5053096;28;20092;-67
2021/12/08 03:15:45;;;;;;;6.13;2.53;;;4.60;99.90;;;;;;5052829;28;20017;-67
2021/12/08 03:18:11;;;;;;;7.65;2.97;;;4.60;99.90;;;;;;5052928;28;20048;-67
2021/12/08 03:20:41;;;;;;;4.40;2.85;;;4.60;99.90;;;;;;5053132;28;20072;-67
2021/12/08 03:23:15;;;;;;;6.25;3.70;;;4.50;99.90;;;;;;5053240;28;20139;-67
2021/12/08 03:25:41;;;;;;;6.05;3.25;;;4.40;99.90;;;;;;5052889;28;20032;-67
2021/12/08 03:28:16;;;;;;;6.63;3.00;;;4.40;99.90;;;;;;5052771;28;20203;-67
2021/12/08 03:30:56;;;;;;;5.07;2.90;;;4.40;99.90;;;;;;5052604;28;20383;-67
2021/12/08 03:33:22;;;;;;;4.30;2.97;;;4.50;99.90;;;;;;5052690;28;20021;-67
2021/12/08 03:35:49;;;;;;;8.52;3.20;;;4.60;99.90;;;;;;5035941;28;20023;-67
2021/12/08 03:38:18;;;;;;;7.57;2.90;;;4.70;99.90;;;;;;5056941;28;20095;-67
2021/12/08 03:40:44;;;;;;;5.38;2.70;;;4.60;99.90;;;;;;5056296;28;20061;-67
2021/12/08 03:43:12;;;;;;;4.15;2.55;;;4.60;99.90;;;;;;5039156;28;20079;-67
2021/12/08 03:45:43;;;;;;;5.85;2.67;;;4.60;99.90;;;;;;5056567;28;20029;-67
2021/12/08 03:48:13;;;;;;;4.88;2.80;;;4.60;99.90;;;;;;5058117;28;20135;-67
2021/12/08 03:50:42;;;;;;;6.30;2.80;;;4.50;99.90;;;;;;5038146;28;20082;-67
2021/12/08 03:53:12;;;;;;;5.70;2.80;;;4.60;99.90;;;;;;5056646;28;20024;-67
2021/12/08 03:55:38;;;;;;;5.75;2.85;;;4.60;99.90;;;;;;5057009;28;20018;-67
2021/12/08 03:58:04;;;;;;;5.40;3.20;;;4.60;99.90;;;;;;5056673;28;20021;-67
2021/12/08 04:00:30;;;;;;;6.93;3.30;;;4.60;99.90;;;;;;5056551;28;20032;-67
2021/12/08 04:02:58;;;;;;;5.77;2.37;;;4.60;99.90;;;;;;5039338;28;20517;-66
2021/12/08 04:05:39;;;;;;;7.45;2.90;;;4.60;99.90;;;;;;5057783;28;20348;-67
2021/12/08 04:08:15;;;;;;;5.68;3.13;;;4.70;99.90;;;;;;5056859;28;20051;-66
2021/12/08 04:10:45;;;;;;;4.30;2.88;;;4.60;99.90;;;;;;5056148;28;20033;-66
2021/12/08 04:13:12;;;;;;;4.85;3.13;;;4.70;99.90;;;;;;5056181;28;20100;-66
2021/12/08 04:15:38;;;;;;;;;;;4.70;99.90;;;;;;5056611;28;20025;-66
2021/12/08 04:18:03;;;;;;;8.13;3.10;;;4.70;99.90;;;;;;5037846;28;19911;-66
2021/12/08 04:20:40;;;;;;;9.88;4.15;;;4.70;99.90;;;;;;5055783;28;20100;-67
2021/12/08 04:23:08;;;;;;;6.82;3.42;;;4.80;99.90;;;;;;5055964;28;20082;-67
2021/12/08 04:25:37;;;;;;;10.20;3.63;;;5.10;99.90;;;;;;5055871;28;20478;-66
2021/12/08 04:28:12;;;;;;;6.53;3.55;;;5.30;99.90;;;;;;5041422;28;20163;-67
2021/12/08 04:30:50;;;;;;;5.00;3.22;;;5.20;99.90;;;;;;5039519;28;20032;-66
2021/12/08 04:33:16;;;;;;;6.05;3.53;;;5.20;99.90;;;;;;5056053;28;20096;-66
2021/12/08 04:35:47;;;;;;;6.35;3.65;;;5.00;99.90;;;;;;5055294;28;20057;-66
2021/12/08 04:38:18;;;;;;;7.20;4.68;;;4.90;99.90;;;;;;5055701;28;20068;-66
2021/12/08 04:40:59;;;;;;;8.48;4.22;;;4.70;99.90;;;;;;5055533;28;20437;-66
2021/12/08 04:43:35;;;;;;;7.50;4.25;;;4.70;99.90;;;;;;5055602;28;20382;-67
2021/12/08 04:46:17;;;;;;;8.70;4.80;;;4.60;99.90;;;;;;5055751;28;20056;-66
2021/12/08 04:51:37;;;;;;;7.55;4.30;;;4.80;99.90;;;;;;5054875;28;20043;-65
2021/12/08 05:02:44;;;;;;;8.85;4.55;;;4.60;99.90;;;;;;5056147;28;20167;-66
2021/12/08 05:10:08;;;;;;;9.80;4.73;;;4.60;99.90;;;;;;5055067;28;20032;-65
2021/12/08 05:12:37;;;;;;;9.75;5.30;;;4.60;99.90;;;;;;5055358;28;20021;-66
2021/12/08 05:15:26;;;;;;;9.20;5.28;;;4.60;99.90;;;;;;5055051;28;20013;-67
2021/12/08 05:18:02;;;;;;;9.20;5.20;;;4.50;99.90;;;;;;5055481;28;20043;-70
2021/12/08 05:20:37;;;;;;;8.45;5.80;;;4.40;99.90;;;;;;5055029;28;20116;-67
2021/12/08 05:23:18;;;;;;;12.38;5.65;;;4.40;99.90;;;;;;5055163;28;20021;-67
2021/12/08 05:25:45;;;;;;;9.93;5.30;;;4.30;99.90;;;;;;5054910;28;20473;-67
2021/12/08 05:28:16;;;;;;;9.77;5.35;;;4.30;99.90;;;;;;5054965;28;20087;-67
2021/12/08 05:30:50;;;;;;;15.30;5.45;;;4.50;99.90;;;;;;5055119;28;20100;-67
2021/12/08 05:33:16;;;;;;;15.10;5.38;;;4.50;99.90;;;;;;5054873;28;20021;-67
2021/12/08 05:35:42;;;;;;;;;;;4.40;99.90;;;;;;5056752;28;20017;-67
2021/12/08 05:38:11;;;;;;;11.57;4.20;;;4.40;99.90;;;;;;5055453;28;19909;-67
2021/12/08 05:40:50;;;;;;;7.95;4.38;;;4.40;99.90;;;;;;5057037;28;20021;-66
2021/12/08 05:43:16;;;;;;;8.95;4.57;;;4.40;99.90;;;;;;5039608;28;20028;-67
2021/12/08 05:45:45;;;;;;;8.38;4.47;;;4.40;99.90;;;;;;5057756;28;20021;-66
2021/12/08 05:48:12;;;;;;;7.47;4.25;;;4.40;99.90;;;;;;5057898;28;20505;-66
2021/12/08 05:50:41;;;;;;;8.00;3.45;;;4.40;99.90;;;;;;5038591;28;20397;-66
2021/12/08 05:53:07;;;;;;;11.48;3.92;;;4.40;99.90;;;;;;5056195;28;20028;-69
2021/12/08 05:55:33;;;;;;;5.63;3.70;;;4.30;99.90;;;;;;5054855;28;20025;-69
2021/12/08 05:57:59;;;;;;;;;;;4.30;99.90;;;;;;5053826;28;20029;-66
2021/12/08 06:00:37;;;;;;;5.75;3.60;;;4.30;99.90;;;;;;5054361;28;20386;-66
2021/12/08 06:03:04;;;;;;;8.32;3.47;;;4.30;99.90;;;;;;5037783;28;20025;-66
2021/12/08 06:05:32;;;;;;;5.65;3.35;;;4.30;99.90;;;;;;5056484;28;20028;-67
2021/12/08 06:07:59;;;;;;;8.20;4.50;;;4.40;99.90;;;;;;5038006;28;20021;-64
2021/12/08 06:10:29;;;;;;;5.75;3.50;;;4.40;99.90;;;;;;5039439;28;20071;-66
2021/12/08 06:12:56;;;;;;;7.25;3.55;;;4.40;99.90;;;;;;5037193;28;20052;-65
2021/12/08 06:15:23;;;;;;;8.68;3.53;;;4.50;99.90;;;;;;5054326;28;20017;-65
2021/12/08 06:17:51;;;;;;;6.80;3.88;;;4.50;99.90;;;;;;5036425;28;20025;-65
2021/12/08 06:20:18;;;;;;;6.35;3.90;;;4.50;99.90;;;;;;5053855;28;20120;-65
2021/12/08 06:22:46;;;;;;;8.80;4.57;;;4.60;99.90;;;;;;5053921;28;20083;-65
2021/12/08 06:25:14;;;;;;;8.73;4.65;;;4.60;99.90;;;;;;5054368;28;20021;-65
2021/12/08 06:27:40;;;;;;;6.70;3.97;;;4.60;99.90;;;;;;5051991;28;20029;-65
2021/12/08 06:30:09;;;;;;;6.53;4.13;;;4.70;99.90;;;;;;5036433;28;20025;-65
2021/12/08 06:32:35;;;;;;;5.88;3.70;;;4.70;99.90;;;;;;5053622;28;20120;-65
2021/12/08 06:35:02;;;;;;;6.70;3.50;;;4.60;99.90;;;;;;5053924;28;20429;-65
2021/12/08 06:37:35;;;;;;;6.80;3.92;;;4.60;99.90;;;;;;5053460;28;20017;-65
2021/12/08 06:40:37;;;;;;;6.55;3.75;;;4.70;99.90;;;;;;5053757;28;20112;-65
2021/12/08 06:43:06;;;;;;;7.30;3.72;;;4.70;99.90;;;;;;5001832;28;20037;-65
2021/12/08 06:45:35;;;;;;;8.63;3.92;;;4.70;99.90;;;;;;5053253;28;20071;-64
2021/12/08 06:48:09;;;;;;;6.07;4.00;;;4.80;99.90;;;;;;5035135;28;20025;-64
2021/12/08 06:50:45;;;;;;;9.57;3.90;;;4.80;99.90;;;;;;5052681;28;20040;-64
2021/12/08 06:53:11;;;;;;;7.13;3.88;;;4.80;99.90;;;;;;5035039;28;20028;-67
2021/12/08 06:55:46;;;;;;;7.53;3.92;;;4.80;99.90;;;;;;5052975;28;20584;-65
2021/12/08 06:58:18;;;;;;;6.10;3.78;;;4.80;99.90;;;;;;5053291;28;20056;-65
2021/12/08 07:03:46;;;;;;;7.63;4.20;;;4.80;99.90;;;;;;5053178;28;20455;-65
2021/12/08 07:08:58;;;;;;;8.18;4.90;;;4.90;99.90;;;;;;5052921;28;20371;-65
2021/12/08 07:11:27;;;;;;;8.55;4.75;;;4.90;99.90;;;;;;5052481;28;20021;-65
2021/12/08 07:13:56;;;;;;;8.48;5.63;;;4.90;99.90;;;;;;5052944;28;20033;-64
2021/12/08 07:16:35;;;;;;;8.40;5.38;;;4.90;99.90;;;;;;5053775;28;20071;-65
2021/12/08 07:19:10;;;;;;;5.82;4.00;;;4.90;99.90;;;;;;5053246;28;20017;-66
2021/12/08 07:21:45;;;;;;;5.10;3.22;;;4.90;99.90;;;;;;5055560;28;20025;-66
2021/12/08 07:24:31;;;;;;;8.15;3.92;;;4.90;99.90;;;;;;5054848;28;20430;-68
2021/12/08 07:27:07;;;;;;;7.18;4.20;;;4.70;99.90;;;;;;5035206;28;20033;-67
2021/12/08 07:29:37;;;;;;;7.63;4.40;;;4.70;99.90;;;;;;5053042;28;20491;-67
2021/12/08 07:32:15;;;;;;;9.30;4.90;;;4.60;99.90;;;;;;5053048;28;20029;-67
2021/12/08 07:34:41;;;;;;;8.45;5.57;;;4.60;99.90;;;;;;5053823;28;20436;-66
2021/12/08 07:37:13;;;;;;;8.02;4.88;;;4.60;99.90;;;;;;5052915;28;20083;-66
2021/12/08 07:39:45;;;;;;;12.45;6.60;;;4.70;99.90;;;;;;5052458;28;20079;-64
2021/12/08 07:42:26;;;;;;;9.80;5.70;;;4.70;99.90;;;;;;5053869;28;20040;-65
2021/12/08 07:44:55;;;;;;;8.38;5.13;;;4.80;99.90;;;;;;5054877;28;20056;-66
2021/12/08 07:47:23;;;;;;;9.00;5.70;;;4.80;99.90;;;;;;5054547;28;20035;-65
2021/12/08 07:50:07;;;;;;;12.00;6.20;;;4.90;99.90;;;;;;5034585;28;20033;-65
2021/12/08 07:52:37;;;;;;;10.20;5.88;;;5.00;99.90;;;;;;5053402;28;20036;-66
2021/12/08 07:55:28;;;;;;;13.05;5.80;;;5.00;99.90;;;;;;5036419;28;20025;-65
2021/12/08 07:57:56;;;;;;;12.13;5.07;;;5.10;99.90;;;;;;5052353;28;20028;-66
2021/12/08 08:00:35;;;;;;;8.73;4.72;;;5.10;99.90;;;;;;5053309;28;20284;-63
2021/12/08 08:03:01;;;;;;;11.65;5.18;;;5.10;99.90;;;;;;5052486;28;20025;-65
2021/12/08 08:05:32;;;;;;;6.88;5.05;;;5.20;99.90;;;;;;5052993;28;20389;-64
2021/12/08 08:08:02;;;;;;;10.00;5.32;;;5.20;99.90;;;;;;5052792;28;20106;-65
2021/12/08 08:10:30;;;;;;;11.52;6.07;;;5.20;99.90;;;;;;5053238;28;20021;-65
2021/12/08 08:13:02;;;;;;;9.63;5.05;;;5.20;99.90;;;;;;5052486;28;20462;-65
2021/12/08 08:15:36;;;;;;;9.82;5.05;;;5.30;99.90;;;;;;5054097;28;20025;-66
2021/12/08 08:18:06;;;;;;;7.97;4.55;;;5.30;99.90;;;;;;5052899;28;20021;-65
2021/12/08 08:20:36;;;;;;;12.77;6.60;;;5.40;99.90;;;;;;5053012;28;20014;-65
2021/12/08 08:23:04;;;;;;;14.80;4.93;;;5.40;99.90;;;;;;5054926;28;20025;-64
2021/12/08 08:25:34;;;;;;;9.75;5.38;;;5.50;99.90;;;;;;5055687;28;20020;-65
2021/12/08 08:28:01;;;;;;;9.57;4.80;;;5.50;99.90;;;;;;5056173;28;20036;-65
2021/12/08 08:30:29;;;;;;;;;;;5.60;99.90;;;;;;5056225;28;20031;-65
2021/12/08 08:32:57;;;;;;;8.20;5.38;;;5.60;99.90;;;;;;5055697;28;19904;-65
2021/12/08 08:35:31;;;;;;;8.35;4.38;;;5.60;99.90;;;;;;5055667;28;20021;-67
2021/12/08 08:37:59;;;;;;;8.30;4.97;;;5.60;99.90;;;;;;5056087;28;20021;-65
2021/12/08 08:40:46;;;;;;;9.63;5.05;;;5.60;99.90;;;;;;5037454;28;20036;-65
2021/12/08 08:43:13;;;;;;;12.32;6.90;;;5.60;99.90;;;;;;5055184;28;20021;-66
2021/12/08 08:45:55;;;;;;;11.23;5.00;;;5.60;99.90;;;;;;5055252;28;20040;-66
2021/12/08 08:48:30;;;;;;;8.35;4.93;;;5.60;99.90;;;;;;5055225;28;20021;-65
2021/12/08 08:51:02;;;;;;;9.45;4.75;;;5.60;99.90;;;;;;5055143;28;20451;-63
2021/12/08 08:53:31;;;;;;;7.63;4.70;;;5.70;99.90;;;;;;5055088;28;20021;-65
2021/12/08 08:56:05;;;;;;;18.25;4.85;;;5.70;99.90;;;;;;5037761;28;20017;-65
2021/12/08 08:58:33;;;;;;;8.57;4.55;;;5.70;99.90;;;;;;5055271;28;20088;-63
2021/12/08 09:01:15;;;;;;;10.23;5.00;;;5.70;99.90;;;;;;5054978;28;20064;-65
2021/12/08 09:03:46;;;;;;;7.82;5.00;;;5.70;99.90;;;;;;5055519;28;20501;-65
2021/12/08 09:06:21;;;;;;;7.30;5.10;;;5.70;99.90;;;;;;5054814;28;20051;-64
2021/12/08 09:08:47;;;;;;;7.47;5.28;;;5.70;99.90;;;;;;5055348;28;20025;-65
2021/12/08 09:11:19;;;;;;;9.70;5.18;;;5.80;99.90;;;;;;5054738;28;20056;-64
2021/12/08 09:13:47;;;;;;;8.73;5.30;;;5.80;99.90;;;;;;5054959;28;20079;-66
2021/12/08 09:16:20;;;;;;;11.02;5.63;;;5.80;99.90;;;;;;5054975;28;20029;-67
2021/12/08 09:19:07;;;;;;;10.43;5.88;;;5.90;99.90;;;;;;5055411;28;20386;-65
2021/12/08 09:21:36;;;;;;;11.20;5.80;;;5.90;99.90;;;;;;5054850;28;20029;-65
2021/12/08 09:24:08;;;;;;;12.00;7.30;;;5.80;99.90;;;;;;5054634;28;20017;-65
2021/12/08 09:26:39;;;;;;;12.95;6.78;;;5.80;99.90;;;;;;5054540;28;20099;-65
2021/12/08 09:29:16;;;;;;;9.93;6.63;;;5.80;99.90;;;;;;5054485;28;20104;-64
2021/12/08 09:31:53;;;;;;;15.35;6.57;;;5.80;99.90;;;;;;5054170;28;20029;-64
2021/12/08 09:34:24;;;;;;;12.85;6.68;;;5.90;99.90;;;;;;5053745;28;20154;-64
2021/12/08 09:36:59;;;;;;;13.35;7.22;;;5.90;99.90;;;;;;5054837;28;20396;-63
2021/12/08 09:39:42;;;;;;;11.00;6.47;;;5.90;99.90;;;;;;5054772;28;20036;-64
2021/12/08 09:42:17;;;;;;;13.43;7.20;;;5.90;99.90;;;;;;5054979;28;20466;-64
2021/12/08 09:44:47;;;;;;;10.90;6.85;;;6.00;99.90;;;;;;5054927;28;20079;-65
2021/12/08 09:47:14;;;;;;;15.13;7.10;;;6.10;99.90;;;;;;5054157;28;20033;-65
2021/12/08 09:49:40;;;;;;;;;;;6.10;99.90;;;;;;5054496;28;20025;-65
2021/12/08 09:52:08;;;;;;;13.90;7.00;;;6.10;99.90;;;;;;5053995;28;19908;-65
2021/12/08 09:54:37;;;;;;;12.93;7.05;;;6.20;99.90;;;;;;5053794;28;20104;-65
2021/12/08 09:57:07;;;;;;;18.40;8.20;;;6.30;99.90;;;;;;5036017;28;20500;-65
2021/12/08 09:59:34;;;;;;;19.55;7.00;;;6.20;99.90;;;;;;5054210;28;20032;-65
2021/12/08 10:02:04;;;;;;;10.85;5.80;;;6.20;99.90;;;;;;5054114;28;20032;-66
2021/12/08 10:04:30;;;;;;;13.57;7.00;;;6.30;99.90;;;;;;5054350;28;20032;-64
2021/12/08 10:07:00;;;;;;;12.77;6.93;;;6.30;99.90;;;;;;5053954;28;20478;-64
2021/12/08 10:09:25;;;;;;;10.80;6.32;;;6.50;99.90;;;;;;5053444;28;20401;-65
2021/12/08 10:11:54;;;;;;;10.77;6.33;;;6.40;99.90;;;;;;5053231;28;20531;-65
2021/12/08 10:14:20;;;;;;;12.07;6.78;;;6.40;99.90;;;;;;5053260;28;20118;-64
2021/12/08 10:16:48;;;;;;;12.15;6.93;;;6.40;99.90;;;;;;5053511;28;20032;-64
2021/12/08 10:19:17;;;;;;;13.95;7.20;;;6.40;99.90;;;;;;5054358;28;20021;-65
2021/12/08 10:21:43;;;;;;;12.98;6.72;;;6.40;99.90;;;;;;5053336;28;20474;-65
2021/12/08 10:24:19;;;;;;;10.93;6.35;;;6.50;99.90;;;;;;5058384;28;20035;-66
2021/12/08 10:26:47;;;;;;;13.30;6.22;;;6.70;99.90;;;;;;5055260;28;20025;-64
2021/12/08 10:29:13;;;;;;;13.60;6.13;;;6.60;99.90;;;;;;5053778;28;20065;-65
2021/12/08 10:31:48;;;;;;;8.57;6.22;;;6.60;99.90;;;;;;5034933;28;20509;-62
2021/12/08 10:36:58;;;;;;;10.30;5.30;;;6.60;99.90;;;;;;5053180;28;20013;-65
2021/12/08 10:39:38;;;;;;;13.45;5.68;;;6.60;99.90;;;;;;5053060;28;20481;-65
2021/12/08 10:42:07;;;;;;;8.20;4.97;;;6.90;99.90;;;;;;5053422;28;20462;-65
2021/12/08 10:45:08;;;;;;;12.25;5.55;;;6.80;99.90;;;;;;5053337;28;20025;-66
2021/12/08 10:47:30;;;;;;;12.25;4.43;;;6.90;99.90;;;;;;5052839;28;20040;-65
2021/12/08 10:55:30;;;;;;;9.80;4.63;;;7.00;99.90;;;;;;5053496;28;20116;-65
2021/12/08 10:57:55;;;;;;;8.93;4.87;;;6.90;99.90;;;;;;5052681;28;20048;-65
2021/12/08 11:00:31;;;;;;;6.53;3.73;;;7.00;99.90;;;;;;5052536;28;20625;-65
2021/12/08 11:03:01;;;;;;;10.02;4.60;;;7.10;99.90;;;;;;5052648;28;20021;-65
2021/12/08 11:05:29;;;;;;;7.15;4.32;;;7.10;99.90;;;;;;5053001;28;20024;-62
2021/12/08 11:08:04;;;;;;;8.57;4.25;;;7.20;99.90;;;;;;5052683;28;20020;-64
2021/12/08 11:10:32;;;;;;;8.15;4.38;;;7.20;99.90;;;;;;5053074;28;20090;-64
2021/12/08 11:12:59;;;;;;;10.40;4.00;;;7.20;99.90;;;;;;5052636;28;20358;-64
2021/12/08 11:15:27;;;;;;;6.05;4.03;;;7.30;99.90;;;;;;5052852;28;20031;-64
2021/12/08 11:18:15;;;;;;;7.18;4.00;;;7.30;99.90;;;;;;5052855;28;20051;-65
2021/12/08 11:20:47;;;;;;;7.50;3.75;;;7.30;99.90;;;;;;5075567;22;20359;-62
2021/12/08 11:23:17;;;;;;;7.63;4.55;;;7.20;99.90;;;;;;5033899;28;20036;-61
2021/12/08 11:25:47;;;;;;;6.70;3.95;;;7.30;99.90;;;;;;5033418;28;20029;-61
2021/12/08 11:28:23;;;;;;;7.75;4.10;;;7.20;99.90;;;;;;5015358;28;20207;-62
2021/12/08 11:30:50;;;;;;;6.40;3.60;;;7.20;99.90;;;;;;5033478;28;20072;-63
2021/12/08 11:33:21;;;;;;;9.38;4.53;;;7.20;99.90;;;;;;5033117;28;20554;-63
2021/12/08 11:35:47;;;;;;;6.55;4.15;;;7.20;99.90;;;;;;5015099;28;20419;-63
2021/12/08 11:38:13;;;;;;;8.77;4.65;;;7.10;99.90;;;;;;5015064;28;20396;-62
2021/12/08 11:40:40;;;;;;;10.05;5.03;;;7.10;99.90;;;;;;5032689;28;20481;-61
2021/12/08 11:43:15;;;;;;;8.85;5.07;;;7.10;99.90;;;;;;5032708;28;20029;-61
2021/12/08 11:45:42;;;;;;;9.48;5.43;;;7.10;99.90;;;;;;5032977;28;20106;-60
2021/12/08 11:48:25;;;;;;;9.05;5.38;;;7.10;99.90;;;;;;5032843;28;20029;-61
2021/12/08 11:51:10;;;;;;;8.90;5.53;;;7.00;99.90;;;;;;5032742;28;20032;-58
2021/12/08 11:53:38;;;;;;;10.57;5.45;;;7.00;99.90;;;;;;5032807;28;20056;-61
2021/12/08 11:56:04;;;;;;;9.90;5.90;;;7.00;99.90;;;;;;5032750;28;20025;-60
2021/12/08 11:58:30;;;;;;;;;;;7.00;99.90;;;;;;5037010;28;20076;-60
2021/12/08 12:00:55;;;;;;;9.65;5.80;;;7.00;99.90;;;;;;5036928;28;19913;-60
2021/12/08 12:03:21;;;;;;;11.13;5.80;;;7.00;99.90;;;;;;5036991;28;20091;-62
2021/12/08 12:05:49;;;;;;;11.63;5.93;;;7.00;99.90;;;;;;5036688;28;20383;-63
2021/12/08 12:08:18;;;;;;;7.32;5.20;;;7.00;99.90;;;;;;5036664;28;20105;-64
2021/12/08 12:10:53;;;;;;;9.05;5.35;;;7.10;99.90;;;;;;5018395;28;20498;-61
2021/12/08 12:13:19;;;;;;;8.40;5.28;;;7.10;99.90;;;;;;5018936;28;20021;-62
2021/12/08 12:15:47;;;;;;;8.30;5.50;;;7.20;99.90;;;;;;5036194;28;20060;-61
2021/12/08 12:18:14;;;;;;;9.40;5.10;;;7.20;99.90;;;;;;5036538;28;20033;-62
2021/12/08 12:20:49;;;;;;;8.38;4.85;;;7.30;99.90;;;;;;5036315;28;20029;-62
2021/12/08 12:23:46;;;;;;;9.98;4.97;;;7.30;99.90;;;;;;5018672;28;20021;-61
2021/12/08 12:26:31;;;;;;;7.32;4.68;;;7.30;99.90;;;;;;5036808;28;20021;-63
2021/12/08 12:29:36;;;;;;;9.32;5.18;;;7.30;99.90;;;;;;5036604;28;20018;-63
2021/12/08 12:32:21;;;;;;;9.88;5.10;;;7.20;99.90;;;;;;5036369;28;20048;-64
2021/12/08 12:34:51;;;;;;;10.63;5.70;;;7.30;99.90;;;;;;5036654;28;20028;-61
2021/12/08 12:37:17;;;;;;;8.55;5.65;;;7.30;99.90;;;;;;5036417;28;20474;-60
2021/12/08 12:39:55;;;;;;;11.20;6.17;;;7.40;99.90;;;;;;5018878;28;20028;-58
2021/12/08 12:42:22;;;;;;;11.38;7.13;;;7.40;99.90;;;;;;5018970;28;20399;-60
2021/12/08 12:44:57;;;;;;;17.42;7.75;;;7.30;99.90;;;;;;5036505;28;20029;-62
2021/12/08 12:47:24;;;;;;;26.23;13.88;;;7.30;99.90;;;;;;5036722;28;20033;-61
2021/12/08 12:50:11;;;;;;;13.23;7.80;;;7.20;99.90;;;;;;5036804;28;20509;-61
2021/12/08 12:52:47;;;;;;;14.40;6.78;;;7.20;99.90;;;;;;5036258;28;20123;-61
2021/12/08 12:55:16;;;;;;;10.05;6.25;;;7.20;99.90;;;;;;5036248;28;20029;-57
2021/12/08 12:58:03;;;;;;;10.93;7.18;;;7.20;99.90;;;;;;5035623;28;20048;-62
2021/12/08 13:00:36;;;;;;;14.90;7.93;;;7.30;99.90;;;;;;5035479;28;20053;-59
2021/12/08 13:03:03;;;;;;;31.52;15.85;;;7.40;99.90;;;;;;5017981;28;20106;-61
2021/12/08 13:05:50;;;;;;;13.10;8.20;;;7.40;99.90;;;;;;5035775;28;20382;-60
2021/12/08 13:08:33;;;;;;;15.80;7.93;;;7.30;99.90;;;;;;5035459;28;20025;-58
2021/12/08 13:11:10;;;;;;;7.53;4.95;;;7.40;99.90;;;;;;5035974;28;20026;-62
2021/12/08 13:13:47;;;;;;;10.02;5.15;;;7.50;99.90;;;;;;5017782;28;20029;-62
2021/12/08 13:16:34;;;;;;;26.08;14.23;;;7.40;99.90;;;;;;5035636;28;20053;-60
2021/12/08 13:19:02;;;;;;;12.20;7.10;;;7.30;99.90;;;;;;5035819;28;20022;-61
2021/12/08 13:21:46;;;;;;;13.25;5.80;;;7.20;99.90;;;;;;5035156;28;20332;-61
2021/12/08 13:24:37;;;;;;;8.57;4.95;;;7.20;99.90;;;;;;5035463;28;20084;-61
2021/12/08 13:27:12;;;;;;;14.57;6.90;;;7.20;99.90;;;;;;5036019;28;20029;-58
2021/12/08 13:29:42;;;;;;;24.63;7.72;;;7.20;99.90;;;;;;5038756;28;20501;-64
2021/12/08 13:32:12;;;;;;;12.52;6.07;;;7.20;99.90;;;;;;5040938;28;20033;-65
2021/12/08 13:34:44;;;;;;;13.30;5.70;;;7.20;99.90;;;;;;5035423;28;20021;-63
2021/12/08 13:37:25;;;;;;;19.38;8.65;;;7.30;99.90;;;;;;5035114;28;20025;-63
2021/12/08 13:39:52;;;;;;;13.50;6.30;;;7.10;99.90;;;;;;5034811;28;20036;-63
2021/12/08 13:42:30;;;;;;;12.05;6.07;;;7.10;99.90;;;;;;5034641;28;20022;-64
2021/12/08 13:44:58;;;;;;;12.02;5.68;;;7.10;99.90;;;;;;5034635;28;20025;-63
2021/12/08 13:47:44;;;;;;;13.25;5.70;;;7.00;99.90;;;;;;5034151;28;20124;-64
2021/12/08 13:50:23;;;;;;;8.45;5.55;;;7.00;99.90;;;;;;5034942;28;20049;-64
2021/12/08 13:53:06;;;;;;;13.50;7.15;;;7.00;99.90;;;;;;5034250;28;20068;-64
2021/12/08 13:55:33;;;;;;;15.55;9.18;;;7.10;99.90;;;;;;5033169;28;20026;-64
2021/12/08 13:58:02;;;;;;;9.68;5.25;;;7.10;99.90;;;;;;5034402;28;20100;-64
2021/12/08 14:00:41;;;;;;;10.68;5.95;;;7.10;99.90;;;;;;5034380;28;20028;-64
2021/12/08 14:03:20;;;;;;;12.32;5.35;;;7.10;99.90;;;;;;5033972;28;20390;-64
2021/12/08 14:05:48;;;;;;;11.00;5.80;;;7.00;99.90;;;;;;5034787;28;20080;-64
2021/12/08 14:08:22;;;;;;;11.27;6.60;;;7.00;99.90;;;;;;5034168;28;20025;-64